sensor_id;sensor_type;location;lat;lon;timestamp;pressure;altitude;pressure_sealevel;temperature;humidity
78373;BME280;67656;52.074;4.758;2023-02-14T00:04:31;103534.00;;;1.16;100.00
78373;BME280;67656;52.074;4.758;2023-02-14T00:09:31;103532.19;;;0.99;100.00
78373;BME280;67656;52.074;4.758;2023-02-14T00:14:32;103535.09;;;0.88;100.00
78373;BME280;67656;52.074;4.758;2023-02-14T00:19:32;103530.75;;;0.89;100.00
78373;BME280;67656;52.074;4.758;2023-02-14T00:24:33;103530.06;;;0.91;100.00
78373;BME280;67656;52.074;4.758;2023-02-14T00:29:33;103531.69;;;0.89;100.00
78373;BME280;67656;52.074;4.758;2023-02-14T00:34:35;103513.16;;;1.00;100.00
78373;BME280;67656;52.074;4.758;2023-02-14T00:39:35;103509.66;;;0.83;100.00
78373;BME280;67656;52.074;4.758;2023-02-14T00:44:39;103506.44;;;0.72;100.00
78373;BME280;67656;52.074;4.758;2023-02-14T00:49:39;103500.34;;;0.71;100.00
78373;BME280;67656;52.074;4.758;2023-02-14T00:54:40;103501.47;;;0.60;100.00
78373;BME280;67656;52.074;4.758;2023-02-14T00:59:40;103496.88;;;0.56;100.00
78373;BME280;67656;52.074;4.758;2023-02-14T01:04:41;103501.03;;;0.52;100.00
78373;BME280;67656;52.074;4.758;2023-02-14T01:09:41;103498.59;;;0.55;100.00
78373;BME280;67656;52.074;4.758;2023-02-14T01:14:41;103499.41;;;0.54;100.00
78373;BME280;67656;52.074;4.758;2023-02-14T01:19:42;103488.38;;;0.58;100.00
78373;BME280;67656;52.074;4.758;2023-02-14T01:24:42;103492.03;;;0.30;100.00
78373;BME280;67656;52.074;4.758;2023-02-14T01:29:42;103484.66;;;0.23;100.00
78373;BME280;67656;52.074;4.758;2023-02-14T01:34:43;103479.47;;;0.23;100.00
78373;BME280;67656;52.074;4.758;2023-02-14T01:39:43;103483.06;;;0.25;100.00
78373;BME280;67656;52.074;4.758;2023-02-14T01:45:18;103490.03;;;0.26;100.00
78373;BME280;67656;52.074;4.758;2023-02-14T01:50:24;103487.88;;;0.19;100.00
78373;BME280;67656;52.074;4.758;2023-02-14T01:55:31;103485.03;;;0.14;100.00
78373;BME280;67656;52.074;4.758;2023-02-14T02:00:32;103481.28;;;0.09;100.00
78373;BME280;67656;52.074;4.758;2023-02-14T02:05:40;103477.38;;;0.33;100.00
78373;BME280;67656;52.074;4.758;2023-02-14T02:10:42;103480.91;;;0.33;100.00
78373;BME280;67656;52.074;4.758;2023-02-14T02:16:11;103476.78;;;0.22;100.00
78373;BME280;67656;52.074;4.758;2023-02-14T02:21:54;103484.56;;;0.07;100.00
78373;BME280;67656;52.074;4.758;2023-02-14T02:27:43;103476.97;;;-0.05;100.00
78373;BME280;67656;52.074;4.758;2023-02-14T02:32:52;103474.03;;;0.04;100.00
78373;BME280;67656;52.074;4.758;2023-02-14T02:43:14;103475.88;;;0.21;100.00
78373;BME280;67656;52.074;4.758;2023-02-14T02:48:19;103476.44;;;0.30;100.00
78373;BME280;67656;52.074;4.758;2023-02-14T02:53:30;103466.75;;;0.43;100.00
78373;BME280;67656;52.074;4.758;2023-02-14T02:58:47;103461.81;;;0.33;100.00
78373;BME280;67656;52.074;4.758;2023-02-14T03:03:53;103459.19;;;0.33;100.00
78373;BME280;67656;52.074;4.758;2023-02-14T03:08:54;103463.84;;;0.53;100.00
78373;BME280;67656;52.074;4.758;2023-02-14T03:19:20;103464.13;;;0.43;100.00
78373;BME280;67656;52.074;4.758;2023-02-14T03:24:54;103456.38;;;0.13;100.00
78373;BME280;67656;52.074;4.758;2023-02-14T03:30:03;103463.09;;;0.09;100.00
78373;BME280;67656;52.074;4.758;2023-02-14T03:40:32;103447.50;;;0.56;100.00
78373;BME280;67656;52.074;4.758;2023-02-14T03:45:45;103462.03;;;0.52;100.00
78373;BME280;67656;52.074;4.758;2023-02-14T03:50:49;103455.00;;;0.35;100.00
78373;BME280;67656;52.074;4.758;2023-02-14T03:56:11;103458.94;;;0.43;100.00
78373;BME280;67656;52.074;4.758;2023-02-14T04:01:24;103457.59;;;0.35;100.00
78373;BME280;67656;52.074;4.758;2023-02-14T04:06:26;103458.88;;;0.26;100.00
78373;BME280;67656;52.074;4.758;2023-02-14T04:11:27;103454.22;;;0.21;100.00
78373;BME280;67656;52.074;4.758;2023-02-14T04:16:27;103451.88;;;0.25;100.00
78373;BME280;67656;52.074;4.758;2023-02-14T04:21:27;103447.59;;;0.11;100.00
78373;BME280;67656;52.074;4.758;2023-02-14T04:26:28;103455.28;;;0.24;100.00
78373;BME280;67656;52.074;4.758;2023-02-14T04:31:28;103456.72;;;0.34;100.00
78373;BME280;67656;52.074;4.758;2023-02-14T04:36:28;103449.53;;;0.30;100.00
78373;BME280;67656;52.074;4.758;2023-02-14T04:41:29;103454.88;;;0.48;100.00
78373;BME280;67656;52.074;4.758;2023-02-14T04:46:29;103448.06;;;0.50;100.00
78373;BME280;67656;52.074;4.758;2023-02-14T04:51:30;103443.50;;;0.46;100.00
78373;BME280;67656;52.074;4.758;2023-02-14T04:56:30;103443.75;;;0.51;100.00
78373;BME280;67656;52.074;4.758;2023-02-14T05:01:31;103440.03;;;0.45;100.00
78373;BME280;67656;52.074;4.758;2023-02-14T05:06:31;103441.47;;;0.40;100.00
78373;BME280;67656;52.074;4.758;2023-02-14T05:11:32;103446.41;;;0.36;100.00
78373;BME280;67656;52.074;4.758;2023-02-14T05:16:32;103435.81;;;0.33;100.00
78373;BME280;67656;52.074;4.758;2023-02-14T05:21:33;103436.47;;;0.28;100.00
78373;BME280;67656;52.074;4.758;2023-02-14T05:26:33;103436.31;;;0.25;100.00
78373;BME280;67656;52.074;4.758;2023-02-14T05:31:34;103448.31;;;0.23;100.00
78373;BME280;67656;52.074;4.758;2023-02-14T05:36:34;103452.44;;;0.20;100.00
78373;BME280;67656;52.074;4.758;2023-02-14T05:41:35;103450.19;;;0.11;100.00
78373;BME280;67656;52.074;4.758;2023-02-14T05:46:35;103452.59;;;0.08;100.00
78373;BME280;67656;52.074;4.758;2023-02-14T05:51:35;103447.41;;;0.08;100.00
78373;BME280;67656;52.074;4.758;2023-02-14T05:56:36;103441.69;;;-0.02;100.00
78373;BME280;67656;52.074;4.758;2023-02-14T06:01:36;103444.22;;;-0.03;100.00
78373;BME280;67656;52.074;4.758;2023-02-14T06:06:37;103440.81;;;-0.02;100.00
78373;BME280;67656;52.074;4.758;2023-02-14T06:11:37;103437.06;;;-0.07;100.00
78373;BME280;67656;52.074;4.758;2023-02-14T06:16:37;103436.53;;;-0.17;100.00
78373;BME280;67656;52.074;4.758;2023-02-14T06:21:38;103432.94;;;-0.19;100.00
78373;BME280;67656;52.074;4.758;2023-02-14T06:26:38;103445.38;;;-0.28;100.00
78373;BME280;67656;52.074;4.758;2023-02-14T06:31:38;103434.00;;;-0.45;100.00
78373;BME280;67656;52.074;4.758;2023-02-14T06:36:39;103439.19;;;-0.45;100.00
78373;BME280;67656;52.074;4.758;2023-02-14T06:41:39;103431.66;;;-0.55;100.00
78373;BME280;67656;52.074;4.758;2023-02-14T06:46:39;103440.06;;;-0.59;100.00
78373;BME280;67656;52.074;4.758;2023-02-14T06:51:40;103438.34;;;-0.59;100.00
78373;BME280;67656;52.074;4.758;2023-02-14T06:56:40;103437.09;;;-0.66;100.00
78373;BME280;67656;52.074;4.758;2023-02-14T07:01:41;103445.50;;;-0.70;100.00
78373;BME280;67656;52.074;4.758;2023-02-14T07:06:41;103444.31;;;-0.75;100.00
78373;BME280;67656;52.074;4.758;2023-02-14T07:11:42;103434.66;;;-0.78;100.00
78373;BME280;67656;52.074;4.758;2023-02-14T07:16:43;103456.28;;;-0.77;100.00
78373;BME280;67656;52.074;4.758;2023-02-14T07:21:43;103456.16;;;-0.65;100.00
78373;BME280;67656;52.074;4.758;2023-02-14T07:26:44;103447.06;;;-0.58;100.00
78373;BME280;67656;52.074;4.758;2023-02-14T07:31:47;103456.53;;;-0.44;100.00
78373;BME280;67656;52.074;4.758;2023-02-14T07:36:50;103453.06;;;-0.29;100.00
78373;BME280;67656;52.074;4.758;2023-02-14T07:41:51;103456.91;;;-0.23;100.00
78373;BME280;67656;52.074;4.758;2023-02-14T07:46:55;103451.03;;;-0.20;100.00
78373;BME280;67656;52.074;4.758;2023-02-14T07:51:56;103456.03;;;-0.08;100.00
78373;BME280;67656;52.074;4.758;2023-02-14T07:56:56;103467.47;;;-0.05;100.00
78373;BME280;67656;52.074;4.758;2023-02-14T08:01:56;103457.47;;;0.02;100.00
78373;BME280;67656;52.074;4.758;2023-02-14T08:06:57;103444.75;;;0.06;100.00
78373;BME280;67656;52.074;4.758;2023-02-14T08:11:57;103454.13;;;0.19;100.00
78373;BME280;67656;52.074;4.758;2023-02-14T08:16:58;103457.59;;;0.35;100.00
78373;BME280;67656;52.074;4.758;2023-02-14T08:21:58;103459.56;;;0.39;100.00
78373;BME280;67656;52.074;4.758;2023-02-14T08:26:59;103466.69;;;0.58;100.00
78373;BME280;67656;52.074;4.758;2023-02-14T08:31:59;103459.66;;;0.72;100.00
78373;BME280;67656;52.074;4.758;2023-02-14T08:36:59;103462.59;;;0.78;100.00
78373;BME280;67656;52.074;4.758;2023-02-14T08:42:00;103450.56;;;0.97;100.00
78373;BME280;67656;52.074;4.758;2023-02-14T08:47:00;103455.50;;;1.07;100.00
78373;BME280;67656;52.074;4.758;2023-02-14T08:52:00;103457.84;;;1.19;100.00
78373;BME280;67656;52.074;4.758;2023-02-14T08:57:01;103462.28;;;1.21;100.00
78373;BME280;67656;52.074;4.758;2023-02-14T09:02:01;103443.50;;;1.44;100.00
78373;BME280;67656;52.074;4.758;2023-02-14T09:07:01;103441.94;;;1.64;100.00
78373;BME280;67656;52.074;4.758;2023-02-14T09:12:05;103443.91;;;1.86;100.00
78373;BME280;67656;52.074;4.758;2023-02-14T09:17:14;103437.38;;;2.12;100.00
78373;BME280;67656;52.074;4.758;2023-02-14T09:22:18;103441.50;;;2.43;100.00
78373;BME280;67656;52.074;4.758;2023-02-14T09:27:21;103441.94;;;2.72;100.00
78373;BME280;67656;52.074;4.758;2023-02-14T09:32:22;103447.88;;;2.88;100.00
78373;BME280;67656;52.074;4.758;2023-02-14T09:37:30;103450.09;;;3.18;100.00
78373;BME280;67656;52.074;4.758;2023-02-14T09:42:40;103444.31;;;3.45;100.00
78373;BME280;67656;52.074;4.758;2023-02-14T09:48:00;103438.09;;;3.62;100.00
78373;BME280;67656;52.074;4.758;2023-02-14T09:58:28;103437.66;;;4.15;100.00
78373;BME280;67656;52.074;4.758;2023-02-14T10:08:55;103435.69;;;4.53;100.00
78373;BME280;67656;52.074;4.758;2023-02-14T10:19:20;103428.72;;;5.01;100.00
78373;BME280;67656;52.074;4.758;2023-02-14T10:24:30;103427.13;;;5.29;100.00
78373;BME280;67656;52.074;4.758;2023-02-14T10:29:34;103421.38;;;5.39;100.00
78373;BME280;67656;52.074;4.758;2023-02-14T10:45:07;103413.50;;;6.17;100.00
78373;BME280;67656;52.074;4.758;2023-02-14T10:50:31;103414.03;;;6.34;100.00
78373;BME280;67656;52.074;4.758;2023-02-14T10:55:53;103407.59;;;6.53;100.00
78373;BME280;67656;52.074;4.758;2023-02-14T11:01:15;103408.53;;;6.84;100.00
78373;BME280;67656;52.074;4.758;2023-02-14T11:06:18;103391.00;;;7.15;100.00
78373;BME280;67656;52.074;4.758;2023-02-14T11:11:32;103387.41;;;7.11;100.00
78373;BME280;67656;52.074;4.758;2023-02-14T11:16:35;103383.63;;;7.33;100.00
78373;BME280;67656;52.074;4.758;2023-02-14T11:21:40;103387.31;;;7.77;100.00
78373;BME280;67656;52.074;4.758;2023-02-14T11:26:47;103370.16;;;8.29;100.00
78373;BME280;67656;52.074;4.758;2023-02-14T11:31:49;103353.25;;;8.20;100.00
78373;BME280;67656;52.074;4.758;2023-02-14T11:36:49;103356.69;;;8.55;100.00
78373;BME280;67656;52.074;4.758;2023-02-14T11:42:03;103345.78;;;8.80;100.00
78373;BME280;67656;52.074;4.758;2023-02-14T11:47:27;103344.81;;;9.22;100.00
78373;BME280;67656;52.074;4.758;2023-02-14T11:52:28;103332.09;;;8.99;100.00
78373;BME280;67656;52.074;4.758;2023-02-14T11:57:34;103329.31;;;8.91;100.00
78373;BME280;67656;52.074;4.758;2023-02-14T12:02:42;103314.47;;;8.95;100.00
78373;BME280;67656;52.074;4.758;2023-02-14T12:07:45;103317.31;;;9.06;100.00
78373;BME280;67656;52.074;4.758;2023-02-14T12:18:39;103298.56;;;9.38;100.00
78373;BME280;67656;52.074;4.758;2023-02-14T12:29:17;103289.56;;;9.82;100.00
78373;BME280;67656;52.074;4.758;2023-02-14T12:34:21;103279.88;;;9.82;100.00
78373;BME280;67656;52.074;4.758;2023-02-14T12:39:41;103285.34;;;9.96;100.00
78373;BME280;67656;52.074;4.758;2023-02-14T12:45:14;103267.97;;;10.12;100.00
78373;BME280;67656;52.074;4.758;2023-02-14T12:55:39;103259.53;;;10.41;100.00
78373;BME280;67656;52.074;4.758;2023-02-14T13:00:59;103254.06;;;10.26;100.00
78373;BME280;67656;52.074;4.758;2023-02-14T13:06:21;103237.94;;;10.01;100.00
78373;BME280;67656;52.074;4.758;2023-02-14T13:22:21;103216.25;;;10.28;100.00
78373;BME280;67656;52.074;4.758;2023-02-14T13:27:26;103210.22;;;10.37;100.00
78373;BME280;67656;52.074;4.758;2023-02-14T13:32:30;103207.66;;;10.43;100.00
78373;BME280;67656;52.074;4.758;2023-02-14T13:37:33;103200.47;;;10.35;100.00
78373;BME280;67656;52.074;4.758;2023-02-14T13:42:51;103198.19;;;10.64;100.00
78373;BME280;67656;52.074;4.758;2023-02-14T13:48:04;103185.03;;;10.70;100.00
78373;BME280;67656;52.074;4.758;2023-02-14T13:53:34;103193.19;;;10.95;100.00
78373;BME280;67656;52.074;4.758;2023-02-14T13:58:45;103186.91;;;10.84;100.00
78373;BME280;67656;52.074;4.758;2023-02-14T14:03:56;103177.28;;;10.90;100.00
78373;BME280;67656;52.074;4.758;2023-02-14T14:08:57;103182.56;;;10.89;100.00
78373;BME280;67656;52.074;4.758;2023-02-14T14:14:33;103184.22;;;10.78;100.00
78373;BME280;67656;52.074;4.758;2023-02-14T14:24:36;103179.91;;;10.87;100.00
78373;BME280;67656;52.074;4.758;2023-02-14T14:29:46;103180.72;;;10.82;100.00
78373;BME280;67656;52.074;4.758;2023-02-14T14:35:02;103185.00;;;10.66;100.00
78373;BME280;67656;52.074;4.758;2023-02-14T14:40:05;103173.50;;;10.59;100.00
78373;BME280;67656;52.074;4.758;2023-02-14T14:45:19;103181.41;;;10.59;100.00
78373;BME280;67656;52.074;4.758;2023-02-14T14:50:23;103164.75;;;10.66;100.00
78373;BME280;67656;52.074;4.758;2023-02-14T14:55:26;103163.97;;;10.78;100.00
78373;BME280;67656;52.074;4.758;2023-02-14T15:00:37;103160.22;;;10.53;100.00
78373;BME280;67656;52.074;4.758;2023-02-14T15:10:40;103162.94;;;10.59;100.00
78373;BME280;67656;52.074;4.758;2023-02-14T15:15:42;103161.16;;;10.58;100.00
78373;BME280;67656;52.074;4.758;2023-02-14T15:20:49;103161.94;;;10.48;100.00
78373;BME280;67656;52.074;4.758;2023-02-14T15:25:51;103156.66;;;10.49;100.00
78373;BME280;67656;52.074;4.758;2023-02-14T15:30:57;103148.78;;;10.51;100.00
78373;BME280;67656;52.074;4.758;2023-02-14T15:36:05;103151.56;;;10.69;100.00
78373;BME280;67656;52.074;4.758;2023-02-14T15:41:11;103145.28;;;10.53;100.00
78373;BME280;67656;52.074;4.758;2023-02-14T15:51:29;103149.16;;;10.05;100.00
78373;BME280;67656;52.074;4.758;2023-02-14T15:56:42;103142.69;;;9.76;100.00
78373;BME280;67656;52.074;4.758;2023-02-14T16:01:48;103148.56;;;9.57;100.00
78373;BME280;67656;52.074;4.758;2023-02-14T16:07:18;103147.31;;;9.30;100.00
78373;BME280;67656;52.074;4.758;2023-02-14T16:12:28;103148.84;;;9.14;100.00
78373;BME280;67656;52.074;4.758;2023-02-14T16:17:32;103149.38;;;8.93;100.00
78373;BME280;67656;52.074;4.758;2023-02-14T16:22:32;103138.38;;;8.65;100.00
78373;BME280;67656;52.074;4.758;2023-02-14T16:27:33;103130.00;;;8.37;100.00
78373;BME280;67656;52.074;4.758;2023-02-14T16:32:39;103132.44;;;8.26;100.00
78373;BME280;67656;52.074;4.758;2023-02-14T16:37:49;103121.28;;;7.93;100.00
78373;BME280;67656;52.074;4.758;2023-02-14T16:42:50;103130.19;;;7.57;100.00
78373;BME280;67656;52.074;4.758;2023-02-14T16:47:54;103126.03;;;7.27;100.00
78373;BME280;67656;52.074;4.758;2023-02-14T16:53:05;103137.66;;;7.00;100.00
78373;BME280;67656;52.074;4.758;2023-02-14T16:58:07;103143.94;;;6.70;100.00
78373;BME280;67656;52.074;4.758;2023-02-14T17:03:07;103152.59;;;6.66;100.00
78373;BME280;67656;52.074;4.758;2023-02-14T17:08:12;103147.44;;;6.36;100.00
78373;BME280;67656;52.074;4.758;2023-02-14T17:13:20;103158.22;;;6.14;100.00
78373;BME280;67656;52.074;4.758;2023-02-14T17:18:23;103148.97;;;5.97;100.00
78373;BME280;67656;52.074;4.758;2023-02-14T17:23:26;103154.75;;;5.85;100.00
78373;BME280;67656;52.074;4.758;2023-02-14T17:28:30;103151.78;;;5.74;100.00
78373;BME280;67656;52.074;4.758;2023-02-14T17:33:31;103147.91;;;5.60;100.00
78373;BME280;67656;52.074;4.758;2023-02-14T17:38:44;103144.13;;;5.80;100.00
78373;BME280;67656;52.074;4.758;2023-02-14T17:43:52;103139.56;;;5.44;100.00
78373;BME280;67656;52.074;4.758;2023-02-14T17:48:53;103133.28;;;5.39;100.00
78373;BME280;67656;52.074;4.758;2023-02-14T17:53:53;103129.34;;;5.52;100.00
78373;BME280;67656;52.074;4.758;2023-02-14T17:58:54;103141.53;;;5.22;100.00
78373;BME280;67656;52.074;4.758;2023-02-14T18:03:54;103133.97;;;5.04;100.00
78373;BME280;67656;52.074;4.758;2023-02-14T18:08:55;103139.50;;;4.86;100.00
78373;BME280;67656;52.074;4.758;2023-02-14T18:13:56;103134.63;;;4.70;100.00
78373;BME280;67656;52.074;4.758;2023-02-14T18:19:20;103137.53;;;4.53;100.00
78373;BME280;67656;52.074;4.758;2023-02-14T18:24:56;103129.78;;;4.30;100.00
78373;BME280;67656;52.074;4.758;2023-02-14T18:35:49;103124.25;;;3.97;100.00
78373;BME280;67656;52.074;4.758;2023-02-14T18:41:03;103132.63;;;3.88;100.00
78373;BME280;67656;52.074;4.758;2023-02-14T18:52:30;103134.69;;;3.73;100.00
78373;BME280;67656;52.074;4.758;2023-02-14T18:57:34;103131.56;;;3.59;100.00
78373;BME280;67656;52.074;4.758;2023-02-14T19:02:49;103129.03;;;3.84;100.00
78373;BME280;67656;52.074;4.758;2023-02-14T19:08:23;103136.53;;;3.75;100.00
78373;BME280;67656;52.074;4.758;2023-02-14T19:13:27;103116.09;;;3.41;100.00
78373;BME280;67656;52.074;4.758;2023-02-14T19:18:28;103124.91;;;3.21;100.00
78373;BME280;67656;52.074;4.758;2023-02-14T19:23:37;103126.25;;;3.12;100.00
78373;BME280;67656;52.074;4.758;2023-02-14T19:28:41;103121.28;;;2.95;100.00
78373;BME280;67656;52.074;4.758;2023-02-14T19:33:48;103112.22;;;2.87;100.00
78373;BME280;67656;52.074;4.758;2023-02-14T19:38:54;103113.69;;;2.80;100.00
78373;BME280;67656;52.074;4.758;2023-02-14T19:44:23;103111.38;;;2.65;100.00
78373;BME280;67656;52.074;4.758;2023-02-14T19:49:29;103119.38;;;2.70;100.00
78373;BME280;67656;52.074;4.758;2023-02-14T19:54:33;103102.59;;;2.63;100.00
78373;BME280;67656;52.074;4.758;2023-02-14T19:59:47;103104.00;;;2.55;100.00
78373;BME280;67656;52.074;4.758;2023-02-14T20:04:54;103087.69;;;2.39;100.00
78373;BME280;67656;52.074;4.758;2023-02-14T20:15:36;103086.50;;;2.31;100.00
78373;BME280;67656;52.074;4.758;2023-02-14T20:20:37;103078.69;;;2.31;100.00
78373;BME280;67656;52.074;4.758;2023-02-14T20:25:46;103074.81;;;2.42;100.00
78373;BME280;67656;52.074;4.758;2023-02-14T20:30:52;103067.63;;;2.37;100.00
78373;BME280;67656;52.074;4.758;2023-02-14T20:35:53;103067.03;;;2.23;100.00
78373;BME280;67656;52.074;4.758;2023-02-14T20:40:53;103075.41;;;2.15;100.00
78373;BME280;67656;52.074;4.758;2023-02-14T20:45:58;103068.28;;;2.11;100.00
78373;BME280;67656;52.074;4.758;2023-02-14T20:51:15;103053.09;;;2.01;100.00
78373;BME280;67656;52.074;4.758;2023-02-14T20:56:22;103054.72;;;1.99;100.00
78373;BME280;67656;52.074;4.758;2023-02-14T21:01:23;103041.88;;;1.82;100.00
78373;BME280;67656;52.074;4.758;2023-02-14T21:06:33;103036.34;;;1.75;100.00
78373;BME280;67656;52.074;4.758;2023-02-14T21:17:48;103037.50;;;1.62;100.00
78373;BME280;67656;52.074;4.758;2023-02-14T21:23:23;103040.72;;;1.56;100.00
78373;BME280;67656;52.074;4.758;2023-02-14T21:28:34;103030.88;;;1.49;100.00
78373;BME280;67656;52.074;4.758;2023-02-14T21:33:43;103022.84;;;1.44;100.00
78373;BME280;67656;52.074;4.758;2023-02-14T21:38:44;103031.06;;;1.53;100.00
78373;BME280;67656;52.074;4.758;2023-02-14T21:43:46;103038.78;;;1.32;100.00
78373;BME280;67656;52.074;4.758;2023-02-14T21:48:46;103025.56;;;1.28;100.00
78373;BME280;67656;52.074;4.758;2023-02-14T21:53:47;103021.41;;;1.31;100.00
78373;BME280;67656;52.074;4.758;2023-02-14T21:58:54;103021.03;;;1.23;100.00
78373;BME280;67656;52.074;4.758;2023-02-14T22:03:56;103029.78;;;1.06;100.00
78373;BME280;67656;52.074;4.758;2023-02-14T22:08:59;103027.25;;;1.07;100.00
78373;BME280;67656;52.074;4.758;2023-02-14T22:14:00;103009.72;;;1.03;100.00
78373;BME280;67656;52.074;4.758;2023-02-14T22:19:00;103013.00;;;0.99;100.00
78373;BME280;67656;52.074;4.758;2023-02-14T22:24:01;103022.84;;;0.87;100.00
78373;BME280;67656;52.074;4.758;2023-02-14T22:29:01;103013.63;;;0.94;100.00
78373;BME280;67656;52.074;4.758;2023-02-14T22:34:03;103003.06;;;0.90;100.00
78373;BME280;67656;52.074;4.758;2023-02-14T22:39:04;103001.13;;;0.86;100.00
78373;BME280;67656;52.074;4.758;2023-02-14T22:44:05;103008.06;;;0.68;100.00
78373;BME280;67656;52.074;4.758;2023-02-14T22:49:06;103000.56;;;0.74;100.00
78373;BME280;67656;52.074;4.758;2023-02-14T22:54:09;103000.28;;;0.68;100.00
78373;BME280;67656;52.074;4.758;2023-02-14T22:59:18;103002.41;;;0.58;100.00
78373;BME280;67656;52.074;4.758;2023-02-14T23:04:20;103010.38;;;0.61;100.00
78373;BME280;67656;52.074;4.758;2023-02-14T23:09:23;103006.13;;;0.64;100.00
78373;BME280;67656;52.074;4.758;2023-02-14T23:14:23;103003.22;;;0.57;100.00
78373;BME280;67656;52.074;4.758;2023-02-14T23:19:32;103014.22;;;0.34;100.00
78373;BME280;67656;52.074;4.758;2023-02-14T23:24:33;103006.94;;;0.26;100.00
78373;BME280;67656;52.074;4.758;2023-02-14T23:29:34;103002.03;;;0.33;100.00
78373;BME280;67656;52.074;4.758;2023-02-14T23:34:38;102996.56;;;0.26;100.00
78373;BME280;67656;52.074;4.758;2023-02-14T23:39:39;103003.31;;;0.23;100.00
78373;BME280;67656;52.074;4.758;2023-02-14T23:44:41;103003.66;;;0.12;100.00
78373;BME280;67656;52.074;4.758;2023-02-14T23:49:42;103002.59;;;0.09;100.00
78373;BME280;67656;52.074;4.758;2023-02-14T23:54:42;102988.03;;;-0.06;100.00
78373;BME280;67656;52.074;4.758;2023-02-14T23:59:43;102976.19;;;-0.01;100.00
